Time;durP1;ratioP1;P1;durP2;ratioP2;P2;SDS_P1;SDS_P2;PMS_P1;PMS_P2;Temp;Humidity;BMP_temperature;BMP_pressure;BME280_temperature;BME280_humidity;BME280_pressure;Samples;Min_cycle;Max_cycle;Signal;HPM_P1;HPM_P2
2022/11/10 04:44:44;;;;;;;5.97;3.77;;;;;;;;;;5002336;27;20593;-84
2022/11/10 04:47:28;;;;;;;8.13;4.73;;;;;;;;;;4933204;28;20322;-84
2022/11/10 04:50:15;;;;;;;8.57;4.80;;;;;;;;;;5011011;28;20346;-84
2022/11/10 04:52:59;;;;;;;7.33;5.37;;;;;;;;;;4982085;28;20248;-83
2022/11/10 04:55:44;;;;;;;7.33;5.17;;;;;;;;;;4993898;28;20239;-84
2022/11/10 04:58:27;;;;;;;9.33;5.30;;;;;;;;;;4992200;28;20267;-84
2022/11/10 05:01:16;;;;;;;7.43;5.13;;;;;;;;;;4982958;28;20219;-85
2022/11/10 05:04:04;;;;;;;11.70;5.53;;;;;;;;;;4995073;28;20263;-85
2022/11/10 05:06:48;;;;;;;5.80;5.10;;;;;;;;;;5009119;28;20296;-84
2022/11/10 05:09:32;;;;;;;11.83;6.00;;;;;;;;;;5029601;28;20849;-85
2022/11/10 05:12:16;;;;;;;7.10;5.60;;;;;;;;;;5009297;28;20310;-85
2022/11/10 05:15:00;;;;;;;8.70;6.30;;;;;;;;;;5004852;28;20243;-83
2022/11/10 05:17:50;;;;;;;8.47;5.50;;;;;;;;;;5026838;28;20334;-82
2022/11/10 05:20:36;;;;;;;9.13;5.93;;;;;;;;;;5031035;28;20254;-81
2022/11/10 05:23:36;;;;;;;7.53;5.57;;;;;;;;;;5030318;28;20322;-83
2022/11/10 05:26:21;;;;;;;7.13;5.53;;;;;;;;;;5021372;28;20255;-84
2022/11/10 05:29:05;;;;;;;8.50;6.10;;;;;;;;;;5025116;28;20254;-85
2022/11/10 05:31:49;;;;;;;11.20;6.10;;;;;;;;;;5025103;28;20227;-83
2022/11/10 05:34:34;;;;;;;8.80;6.07;;;;;;;;;;5020282;28;20296;-84
2022/11/10 05:37:18;;;;;;;14.80;7.00;;;;;;;;;;5011502;28;20271;-83
2022/11/10 05:40:02;;;;;;;14.10;5.90;;;;;;;;;;5024541;28;20232;-83
2022/11/10 05:42:48;;;;;;;9.03;6.30;;;;;;;;;;5005035;28;20310;-82
2022/11/10 05:45:35;;;;;;;9.67;6.00;;;;;;;;;;4997410;28;20255;-82
2022/11/10 05:48:19;;;;;;;11.67;6.30;;;;;;;;;;4992979;28;20320;-83
2022/11/10 05:51:03;;;;;;;12.80;7.13;;;;;;;;;;5018840;28;20223;-84
2022/11/10 05:53:50;;;;;;;9.37;6.50;;;;;;;;;;5016201;28;20369;-84
2022/11/10 05:56:34;;;;;;;13.00;7.13;;;;;;;;;;5002677;28;20355;-82
2022/11/10 05:59:20;;;;;;;11.43;7.17;;;;;;;;;;5017212;28;20224;-82
2022/11/10 06:02:10;;;;;;;16.67;8.00;;;;;;;;;;5016152;28;20227;-83
2022/11/10 06:04:54;;;;;;;13.87;7.83;;;;;;;;;;5015943;28;20235;-83
2022/11/10 06:07:38;;;;;;;15.33;8.27;;;;;;;;;;4987499;28;20243;-83
2022/11/10 06:10:24;;;;;;;9.23;7.40;;;;;;;;;;4965742;28;20619;-82
2022/11/10 06:13:10;;;;;;;19.17;8.27;;;;;;;;;;5002431;28;20243;-83
2022/11/10 06:15:54;;;;;;;10.80;8.20;;;;;;;;;;4997739;28;20731;-85
2022/11/10 06:18:38;;;;;;;11.10;7.73;;;;;;;;;;5011634;28;20236;-83
2022/11/10 06:21:22;;;;;;;12.57;8.10;;;;;;;;;;4997542;28;20239;-82
2022/11/10 06:24:09;;;;;;;12.63;8.60;;;;;;;;;;4995600;28;20239;-83
2022/11/10 06:26:53;;;;;;;13.20;7.63;;;;;;;;;;4998070;28;20788;-84
2022/11/10 06:29:37;;;;;;;10.37;7.67;;;;;;;;;;4994292;28;20765;-84
2022/11/10 06:32:21;;;;;;;15.63;8.87;;;;;;;;;;4995641;28;20244;-83
2022/11/10 06:35:05;;;;;;;10.23;7.83;;;;;;;;;;5003185;28;20998;-83
2022/11/10 06:38:00;;;;;;;11.57;10.17;;;;;;;;;;5034393;28;20229;-83
2022/11/10 06:40:47;;;;;;;14.53;12.37;;;;;;;;;;5020768;28;20240;-85
2022/11/10 06:43:32;;;;;;;16.27;12.43;;;;;;;;;;4991607;28;20866;-85
2022/11/10 06:46:16;;;;;;;16.70;10.10;;;;;;;;;;5020867;28;20266;-84
2022/11/10 06:49:00;;;;;;;10.93;9.27;;;;;;;;;;5007174;28;20788;-83
2022/11/10 06:51:44;;;;;;;11.63;9.47;;;;;;;;;;4988845;28;20308;-83
2022/11/10 06:54:28;;;;;;;11.87;9.57;;;;;;;;;;5007672;28;20330;-85
2022/11/10 06:57:13;;;;;;;13.83;9.07;;;;;;;;;;5017396;28;20739;-83
2022/11/10 06:59:57;;;;;;;10.53;9.40;;;;;;;;;;5008930;28;20591;-84
2022/11/10 07:02:41;;;;;;;14.70;10.20;;;;;;;;;;5012604;28;20234;-85
2022/11/10 07:05:28;;;;;;;12.93;9.27;;;;;;;;;;4988820;28;20775;-85
2022/11/10 07:08:14;;;;;;;14.13;9.43;;;;;;;;;;4995158;28;20907;-82
2022/11/10 07:10:58;;;;;;;16.30;10.30;;;;;;;;;;4975558;28;20256;-82
2022/11/10 07:13:43;;;;;;;13.17;10.10;;;;;;;;;;4986619;28;20237;-83
2022/11/10 07:16:52;;;;;;;15.40;10.97;;;;;;;;;;5013786;28;21081;-84
2022/11/10 07:19:36;;;;;;;13.70;9.93;;;;;;;;;;5020513;28;20229;-86
2022/11/10 07:22:20;;;;;;;13.73;9.73;;;;;;;;;;5006160;28;20239;-84
2022/11/10 07:25:05;;;;;;;12.60;9.10;;;;;;;;;;5016339;28;20363;-84
2022/11/10 07:27:53;;;;;;;18.37;11.13;;;;;;;;;;5001064;28;20243;-84
2022/11/10 07:30:40;;;;;;;13.97;9.90;;;;;;;;;;4998945;28;20294;-83
2022/11/10 07:33:24;;;;;;;12.13;9.23;;;;;;;;;;5010085;28;20639;-83
2022/11/10 07:36:11;;;;;;;14.00;10.33;;;;;;;;;;4990961;28;20240;-86
2022/11/10 07:38:55;;;;;;;11.17;9.97;;;;;;;;;;4990301;28;20232;-85
2022/11/10 07:41:39;;;;;;;13.30;9.20;;;;;;;;;;5013238;28;20238;-83
2022/11/10 07:44:26;;;;;;;16.07;10.60;;;;;;;;;;4992063;28;20278;-85
2022/11/10 07:47:13;;;;;;;15.43;10.40;;;;;;;;;;5006341;28;20231;-83
2022/11/10 07:49:57;;;;;;;13.17;10.07;;;;;;;;;;4998847;28;20281;-85
2022/11/10 07:52:44;;;;;;;17.03;10.17;;;;;;;;;;4979915;28;20236;-82
2022/11/10 07:55:31;;;;;;;15.00;10.43;;;;;;;;;;5007466;28;20311;-84
2022/11/10 07:58:16;;;;;;;14.60;10.30;;;;;;;;;;5006007;28;20232;-83
2022/11/10 08:01:00;;;;;;;13.37;10.33;;;;;;;;;;4994348;28;20228;-84
2022/11/10 08:03:47;;;;;;;13.83;10.87;;;;;;;;;;4993747;28;20759;-84
2022/11/10 08:06:31;;;;;;;15.20;10.07;;;;;;;;;;4982043;28;20283;-83
2022/11/10 08:09:17;;;;;;;11.03;9.87;;;;;;;;;;4999246;28;20281;-83
2022/11/10 08:12:01;;;;;;;13.53;10.33;;;;;;;;;;5020691;28;20312;-86
2022/11/10 08:14:45;;;;;;;15.17;10.47;;;;;;;;;;4999378;28;20240;-85
2022/11/10 08:17:29;;;;;;;14.03;9.83;;;;;;;;;;5012126;28;20242;-84
2022/11/10 08:20:13;;;;;;;11.23;10.00;;;;;;;;;;4997516;28;20821;-83
2022/11/10 08:23:03;;;;;;;13.60;10.60;;;;;;;;;;5001578;28;20251;-82
2022/11/10 08:25:51;;;;;;;15.70;10.70;;;;;;;;;;4998807;28;20295;-83
2022/11/10 08:28:35;;;;;;;15.87;10.67;;;;;;;;;;4989444;28;20277;-84
2022/11/10 08:31:20;;;;;;;17.13;13.00;;;;;;;;;;4983332;28;20271;-84
2022/11/10 08:34:04;;;;;;;15.47;12.30;;;;;;;;;;4991347;28;20236;-84
2022/11/10 08:36:51;;;;;;;12.13;10.83;;;;;;;;;;5018408;28;20227;-84
2022/11/10 08:39:35;;;;;;;12.10;10.83;;;;;;;;;;4987267;28;20236;-83
2022/11/10 08:42:20;;;;;;;12.30;10.80;;;;;;;;;;4982382;28;20713;-84
2022/11/10 08:45:07;;;;;;;16.80;10.83;;;;;;;;;;5008527;28;20278;-84
2022/11/10 08:48:02;;;;;;;16.37;11.60;;;;;;;;;;5010589;28;20259;-85
2022/11/10 08:50:48;;;;;;;13.27;10.40;;;;;;;;;;5002469;28;20260;-84
2022/11/10 08:53:35;;;;;;;15.10;10.13;;;;;;;;;;4990437;28;20223;-85
2022/11/10 08:56:24;;;;;;;14.23;10.13;;;;;;;;;;4986097;28;20290;-85
2022/11/10 08:59:08;;;;;;;13.93;10.93;;;;;;;;;;4987549;28;21340;-85
2022/11/10 09:01:54;;;;;;;14.30;10.60;;;;;;;;;;4991336;28;20264;-85
2022/11/10 09:04:41;;;;;;;14.27;10.10;;;;;;;;;;5010339;28;20250;-84
2022/11/10 09:07:29;;;;;;;13.53;10.17;;;;;;;;;;5012127;28;20262;-83
2022/11/10 09:10:15;;;;;;;13.63;9.20;;;;;;;;;;5007055;28;20273;-85
2022/11/10 09:13:00;;;;;;;12.60;9.67;;;;;;;;;;4985123;28;20259;-85
2022/11/10 09:15:44;;;;;;;14.53;9.73;;;;;;;;;;4999515;28;20312;-85
2022/11/10 09:18:29;;;;;;;14.50;9.53;;;;;;;;;;4994256;28;20266;-85
2022/11/10 09:21:13;;;;;;;19.13;9.83;;;;;;;;;;5001285;28;20255;-84
2022/11/10 09:23:57;;;;;;;12.40;8.97;;;;;;;;;;4997004;28;20239;-84
2022/11/10 09:26:44;;;;;;;13.20;8.97;;;;;;;;;;4985459;28;20299;-84
2022/11/10 09:29:27;;;;;;;15.67;9.27;;;;;;;;;;5013555;28;20714;-85
2022/11/10 09:32:12;;;;;;;13.73;8.50;;;;;;;;;;5000958;28;20222;-85
2022/11/10 09:34:56;;;;;;;11.67;8.90;;;;;;;;;;5015893;28;20271;-85
2022/11/10 09:37:41;;;;;;;9.13;7.97;;;;;;;;;;5006843;28;20275;-86
2022/11/10 09:40:49;;;;;;;12.50;8.60;;;;;;;;;;5003824;28;20648;-84
2022/11/10 09:43:41;;;;;;;12.83;8.43;;;;;;;;;;5012959;28;20590;-83
2022/11/10 09:46:28;;;;;;;12.47;8.30;;;;;;;;;;5033249;28;20332;-84
2022/11/10 09:49:50;;;;;;;12.17;7.80;;;;;;;;;;5006646;28;20239;-84
2022/11/10 09:52:34;;;;;;;14.07;8.23;;;;;;;;;;5019203;28;20243;-83
2022/11/10 09:55:36;;;;;;;15.03;7.93;;;;;;;;;;5000860;28;20236;-84
2022/11/10 09:58:22;;;;;;;10.30;8.47;;;;;;;;;;5014472;28;20689;-84
2022/11/10 10:01:35;;;;;;;9.67;7.20;;;;;;;;;;5006358;28;20240;-84
2022/11/10 10:04:38;;;;;;;10.70;7.47;;;;;;;;;;5020145;28;20228;-85
2022/11/10 10:07:35;;;;;;;12.00;7.53;;;;;;;;;;5019970;28;20234;-85
2022/11/10 10:10:27;;;;;;;14.53;7.50;;;;;;;;;;5018513;28;20239;-84
2022/11/10 10:13:45;;;;;;;10.07;7.77;;;;;;;;;;5014128;28;20232;-85
2022/11/10 10:16:47;;;;;;;11.27;7.83;;;;;;;;;;5023362;28;20239;-85
2022/11/10 10:19:56;;;;;;;11.83;7.40;;;;;;;;;;4988555;28;20227;-85
2022/11/10 10:22:59;;;;;;;13.07;7.60;;;;;;;;;;5002230;28;20279;-80
2022/11/10 10:25:43;;;;;;;11.37;7.03;;;;;;;;;;5030675;28;20234;-84
2022/11/10 10:28:32;;;;;;;9.77;7.37;;;;;;;;;;5019859;28;20240;-81
2022/11/10 10:31:16;;;;;;;11.17;7.40;;;;;;;;;;5018722;28;20237;-82
2022/11/10 10:34:07;;;;;;;10.23;6.60;;;;;;;;;;5034713;28;20305;-85
2022/11/10 10:36:51;;;;;;;11.47;6.90;;;;;;;;;;5005210;28;20224;-82
2022/11/10 10:39:41;;;;;;;12.57;7.07;;;;;;;;;;5018770;28;20240;-86
2022/11/10 10:42:33;;;;;;;12.87;6.40;;;;;;;;;;5012638;28;20237;-83
2022/11/10 10:45:29;;;;;;;10.77;5.85;;;;;;;;;;5003506;28;20239;-84
2022/11/10 10:48:25;;;;;;;13.17;6.53;;;;;;;;;;5017183;28;20904;-85
2022/11/10 10:51:09;;;;;;;9.77;6.57;;;;;;;;;;5006309;28;20240;-82
2022/11/10 10:53:55;;;;;;;11.43;6.27;;;;;;;;;;5020814;28;20235;-84
2022/11/10 10:56:39;;;;;;;8.63;5.70;;;;;;;;;;4980278;28;20595;-85
2022/11/10 10:59:24;;;;;;;13.00;6.03;;;;;;;;;;4986969;28;20301;-84
2022/11/10 11:02:37;;;;;;;8.77;6.00;;;;;;;;;;4984008;28;20240;-85
2022/11/10 11:05:22;;;;;;;11.27;5.77;;;;;;;;;;5013764;28;20259;-84
2022/11/10 11:08:08;;;;;;;10.32;6.25;;;;;;;;;;4991519;28;20251;-85
2022/11/10 11:10:52;;;;;;;10.90;5.75;;;;;;;;;;4997275;28;20320;-85
2022/11/10 11:13:36;;;;;;;12.65;5.78;;;;;;;;;;4994397;28;20258;-83
2022/11/10 11:16:20;;;;;;;12.30;6.20;;;;;;;;;;5000284;28;20639;-85
2022/11/10 11:19:06;;;;;;;9.43;5.30;;;;;;;;;;5001589;28;20244;-85
2022/11/10 11:22:18;;;;;;;9.07;5.37;;;;;;;;;;5013828;28;20227;-84
2022/11/10 11:25:17;;;;;;;11.17;5.20;;;;;;;;;;5009641;28;20316;-84
2022/11/10 11:28:19;;;;;;;13.33;4.90;;;;;;;;;;5002441;28;20226;-84
2022/11/10 11:31:25;;;;;;;10.93;5.90;;;;;;;;;;5009044;28;20311;-84
2022/11/10 11:34:28;;;;;;;8.13;5.28;;;;;;;;;;5014661;28;20707;-85
2022/11/10 11:37:18;;;;;;;13.47;5.63;;;;;;;;;;5030779;28;20231;-84
2022/11/10 11:40:11;;;;;;;10.02;4.88;;;;;;;;;;5028978;28;20232;-84
2022/11/10 11:43:17;;;;;;;8.82;4.32;;;;;;;;;;4999105;28;20907;-86
2022/11/10 11:46:21;;;;;;;12.85;4.40;;;;;;;;;;4994652;28;20228;-85
2022/11/10 11:49:24;;;;;;;6.30;3.85;;;;;;;;;;4996732;28;20950;-84
2022/11/10 11:52:44;;;;;;;9.13;3.97;;;;;;;;;;5013146;28;20239;-84
2022/11/10 11:55:54;;;;;;;8.05;3.97;;;;;;;;;;5020249;28;20243;-84
2022/11/10 11:59:04;;;;;;;10.95;4.20;;;;;;;;;;4993728;28;20224;-84
2022/11/10 12:02:01;;;;;;;7.35;3.70;;;;;;;;;;5005864;28;20310;-84
2022/11/10 12:05:13;;;;;;;9.38;3.67;;;;;;;;;;5033180;28;20328;-85
2022/11/10 12:08:11;;;;;;;9.32;3.95;;;;;;;;;;5015238;28;20239;-83
2022/11/10 12:11:11;;;;;;;8.55;3.50;;;;;;;;;;5002543;28;20231;-84
2022/11/10 12:14:07;;;;;;;9.60;3.95;;;;;;;;;;4995181;28;20677;-83
2022/11/10 12:17:03;;;;;;;5.45;3.70;;;;;;;;;;4992365;28;20228;-84
2022/11/10 12:20:26;;;;;;;8.18;3.50;;;;;;;;;;5005105;28;20259;-85
2022/11/10 12:23:22;;;;;;;9.45;4.13;;;;;;;;;;4993151;28;20232;-84
2022/11/10 12:26:27;;;;;;;8.43;3.53;;;;;;;;;;5012210;28;20286;-84
2022/11/10 12:29:31;;;;;;;11.30;3.85;;;;;;;;;;5032655;28;20211;-83
2022/11/10 12:32:26;;;;;;;10.70;3.72;;;;;;;;;;5017358;28;20239;-83
2022/11/10 12:35:48;;;;;;;7.82;3.50;;;;;;;;;;5034626;28;20246;-82
2022/11/10 12:38:54;;;;;;;8.55;3.80;;;;;;;;;;5016489;28;20245;-84
2022/11/10 12:41:41;;;;;;;6.38;3.42;;;;;;;;;;5018343;28;20286;-84
2022/11/10 12:44:32;;;;;;;10.70;3.67;;;;;;;;;;5002669;28;20302;-85
2022/11/10 12:47:17;;;;;;;8.13;3.60;;;;;;;;;;4998811;28;20225;-86
2022/11/10 12:50:13;;;;;;;9.32;3.78;;;;;;;;;;4993658;28;20280;-85
2022/11/10 12:52:58;;;;;;;10.43;3.60;;;;;;;;;;5027910;28;20304;-84
2022/11/10 12:56:22;;;;;;;6.78;3.40;;;;;;;;;;5016880;28;20236;-82
2022/11/10 12:59:19;;;;;;;10.73;3.93;;;;;;;;;;5009721;28;20227;-82
2022/11/10 13:02:28;;;;;;;9.17;3.53;;;;;;;;;;5012144;28;20606;-83
2022/11/10 13:05:28;;;;;;;7.80;3.00;;;;;;;;;;5009308;28;20244;-84
2022/11/10 13:08:18;;;;;;;8.55;4.65;;;;;;;;;;5015385;28;20239;-83
2022/11/10 13:11:19;;;;;;;6.85;2.78;;;;;;;;;;5027215;28;20696;-84
2022/11/10 13:14:04;;;;;;;10.82;3.13;;;;;;;;;;5018943;28;20739;-83
2022/11/10 13:16:55;;;;;;;5.93;2.97;;;;;;;;;;5021685;28;20738;-84
2022/11/10 13:19:39;;;;;;;9.47;2.70;;;;;;;;;;4994316;28;20231;-84
2022/11/10 13:22:36;;;;;;;6.60;3.00;;;;;;;;;;5032723;28;20255;-84
2022/11/10 13:25:38;;;;;;;5.47;2.67;;;;;;;;;;5016628;28;20310;-86
2022/11/10 13:28:47;;;;;;;8.00;2.47;;;;;;;;;;5034797;28;20230;-84
2022/11/10 13:31:31;;;;;;;8.93;2.70;;;;;;;;;;5010450;28;20928;-83
2022/11/10 13:34:18;;;;;;;8.60;2.63;;;;;;;;;;5014916;28;20776;-84
2022/11/10 13:37:36;;;;;;;10.27;3.10;;;;;;;;;;5016656;28;20260;-84
2022/11/10 13:40:23;;;;;;;6.32;2.40;;;;;;;;;;5028875;28;20294;-86
2022/11/10 13:43:13;;;;;;;8.63;2.83;;;;;;;;;;5024266;28;20256;-85
2022/11/10 13:46:01;;;;;;;5.35;2.47;;;;;;;;;;5007021;28;20236;-85
2022/11/10 13:49:09;;;;;;;11.23;3.08;;;;;;;;;;5000898;28;20310;-84
2022/11/10 13:52:04;;;;;;;7.60;2.80;;;;;;;;;;5020509;28;20240;-84
2022/11/10 13:55:23;;;;;;;8.50;3.00;;;;;;;;;;5000405;28;20236;-85
2022/11/10 13:58:09;;;;;;;6.10;2.73;;;;;;;;;;5019937;28;20313;-85
2022/11/10 14:01:15;;;;;;;10.50;4.17;;;;;;;;;;5007082;28;20262;-84
2022/11/10 14:04:00;;;;;;;6.47;2.77;;;;;;;;;;5011096;28;20243;-84
2022/11/10 14:06:49;;;;;;;9.70;3.63;;;;;;;;;;5011106;28;20251;-83
2022/11/10 14:09:38;;;;;;;7.15;2.70;;;;;;;;;;4989699;28;20227;-83
2022/11/10 14:12:44;;;;;;;7.73;2.57;;;;;;;;;;5004977;28;20654;-84
2022/11/10 14:15:42;;;;;;;9.67;2.93;;;;;;;;;;5003459;28;20228;-83
2022/11/10 14:18:48;;;;;;;8.03;4.10;;;;;;;;;;5009500;28;20254;-84
2022/11/10 14:21:51;;;;;;;7.07;2.70;;;;;;;;;;5014777;28;20251;-85
2022/11/10 14:24:38;;;;;;;6.70;2.27;;;;;;;;;;4998611;28;20252;-81
2022/11/10 14:27:24;;;;;;;11.50;7.15;;;;;;;;;;4995382;28;20216;-85
2022/11/10 14:30:26;;;;;;;8.07;3.37;;;;;;;;;;4992848;28;20235;-83
2022/11/10 14:33:11;;;;;;;6.07;3.00;;;;;;;;;;5016766;28;20772;-83
2022/11/10 14:35:57;;;;;;;9.67;3.57;;;;;;;;;;5007923;28;20239;-83
2022/11/10 14:38:46;;;;;;;7.37;2.50;;;;;;;;;;5016785;28;20251;-83
2022/11/10 14:41:33;;;;;;;7.78;3.42;;;;;;;;;;4979086;28;20604;-83
2022/11/10 14:44:27;;;;;;;7.33;2.83;;;;;;;;;;5003106;28;20367;-83
2022/11/10 14:47:29;;;;;;;5.67;2.37;;;;;;;;;;5000305;28;20232;-81
2022/11/10 14:50:31;;;;;;;11.10;2.63;;;;;;;;;;5000888;28;20708;-83
2022/11/10 14:53:18;;;;;;;5.40;2.40;;;;;;;;;;5006206;28;20293;-83
2022/11/10 14:56:03;;;;;;;8.53;2.70;;;;;;;;;;5019868;28;20224;-84
2022/11/10 14:58:48;;;;;;;7.40;2.58;;;;;;;;;;5004632;28;20708;-82
2022/11/10 15:01:35;;;;;;;5.27;2.37;;;;;;;;;;5000692;28;20266;-83
2022/11/10 15:04:23;;;;;;;3.95;1.75;;;;;;;;;;5018080;28;20255;-84
2022/11/10 15:07:07;;;;;;;7.17;2.23;;;;;;;;;;5000082;28;20231;-84
2022/11/10 15:10:13;;;;;;;6.00;2.10;;;;;;;;;;5004445;28;20377;-83
2022/11/10 15:13:14;;;;;;;8.63;2.10;;;;;;;;;;5018590;28;20283;-82
2022/11/10 15:16:20;;;;;;;6.37;2.23;;;;;;;;;;4995046;28;20247;-84
2022/11/10 15:19:22;;;;;;;6.70;2.13;;;;;;;;;;5005668;28;20244;-85
2022/11/10 15:22:32;;;;;;;8.33;4.50;;;;;;;;;;5025888;28;20234;-83
2022/11/10 15:25:18;;;;;;;8.33;3.93;;;;;;;;;;5016676;28;20259;-84
2022/11/10 15:28:26;;;;;;;6.17;2.27;;;;;;;;;;4998228;28;20232;-82
2022/11/10 15:31:12;;;;;;;7.85;3.00;;;;;;;;;;5012136;28;20255;-82
2022/11/10 15:34:05;;;;;;;7.45;2.85;;;;;;;;;;5002432;28;20247;-83
2022/11/10 15:37:07;;;;;;;5.60;2.43;;;;;;;;;;5002475;28;20240;-88
2022/11/10 15:39:52;;;;;;;7.00;3.80;;;;;;;;;;5004249;28;20263;-83
2022/11/10 15:42:39;;;;;;;8.43;2.88;;;;;;;;;;4990921;28;20239;-83
2022/11/10 15:45:24;;;;;;;7.03;2.20;;;;;;;;;;4969279;28;20263;-84
2022/11/10 15:48:11;;;;;;;9.43;3.43;;;;;;;;;;4997130;28;20283;-84
2022/11/10 15:50:57;;;;;;;8.30;3.50;;;;;;;;;;5005875;28;20290;-82
2022/11/10 15:53:45;;;;;;;13.03;3.90;;;;;;;;;;4994940;28;20306;-81
2022/11/10 15:56:29;;;;;;;5.17;2.50;;;;;;;;;;4999828;28;20709;-83
2022/11/10 15:59:16;;;;;;;5.87;2.57;;;;;;;;;;5020079;28;20719;-82
2022/11/10 16:02:00;;;;;;;7.63;3.43;;;;;;;;;;5002505;28;20746;-83
2022/11/10 16:04:46;;;;;;;8.45;3.58;;;;;;;;;;5018978;28;20240;-83
2022/11/10 16:07:31;;;;;;;11.50;3.70;;;;;;;;;;4988358;28;20267;-84
2022/11/10 16:10:15;;;;;;;10.93;3.97;;;;;;;;;;4999732;28;20229;-85
2022/11/10 16:13:02;;;;;;;11.97;3.80;;;;;;;;;;5015119;28;20282;-85
2022/11/10 16:15:48;;;;;;;6.83;3.67;;;;;;;;;;4985717;28;20259;-82
2022/11/10 16:18:35;;;;;;;5.43;3.17;;;;;;;;;;4994930;28;20291;-82
2022/11/10 16:21:23;;;;;;;9.50;2.50;;;;;;;;;;5000774;28;20299;-82
2022/11/10 16:24:07;;;;;;;5.60;2.60;;;;;;;;;;5019185;28;20394;-81
2022/11/10 16:26:52;;;;;;;5.68;2.10;;;;;;;;;;5000601;28;20231;-83
2022/11/10 16:29:36;;;;;;;4.53;2.33;;;;;;;;;;4993966;28;20251;-85
2022/11/10 16:32:20;;;;;;;8.10;3.00;;;;;;;;;;4995776;28;20236;-84
2022/11/10 16:35:05;;;;;;;7.10;2.57;;;;;;;;;;5012172;28;20319;-84
2022/11/10 16:37:49;;;;;;;5.70;2.40;;;;;;;;;;5002206;28;20232;-83
2022/11/10 16:40:33;;;;;;;8.50;3.03;;;;;;;;;;4994464;28;20312;-83
2022/11/10 16:43:20;;;;;;;5.95;2.42;;;;;;;;;;5002977;28;20223;-82
2022/11/10 16:46:07;;;;;;;6.40;2.63;;;;;;;;;;5016323;28;20374;-85
2022/11/10 16:49:00;;;;;;;7.70;4.07;;;;;;;;;;5004148;28;20240;-84
2022/11/10 16:51:47;;;;;;;11.50;4.07;;;;;;;;;;5008886;28;20264;-86
2022/11/10 16:54:32;;;;;;;6.93;3.30;;;;;;;;;;4983167;28;20255;-85
2022/11/10 16:57:16;;;;;;;6.67;3.30;;;;;;;;;;5018243;28;20231;-82
2022/11/10 17:00:02;;;;;;;5.90;2.20;;;;;;;;;;5006095;28;20251;-82
2022/11/10 17:03:25;;;;;;;6.57;3.30;;;;;;;;;;4999212;28;20719;-86
2022/11/10 17:06:12;;;;;;;7.63;2.60;;;;;;;;;;5013803;28;20228;-83
2022/11/10 17:09:24;;;;;;;8.07;2.60;;;;;;;;;;4986477;28;20240;-84
2022/11/10 17:12:13;;;;;;;7.70;2.83;;;;;;;;;;5002205;28;20259;-82
2022/11/10 17:14:57;;;;;;;7.40;2.00;;;;;;;;;;4987296;28;20248;-84
2022/11/10 17:17:49;;;;;;;4.27;2.10;;;;;;;;;;4971020;28;20220;-84
2022/11/10 17:20:36;;;;;;;6.23;2.10;;;;;;;;;;4981419;28;21099;-83
2022/11/10 17:23:21;;;;;;;6.23;2.77;;;;;;;;;;4977853;28;20249;-84
2022/11/10 17:26:12;;;;;;;4.60;2.10;;;;;;;;;;4969991;28;20268;-83
2022/11/10 17:28:58;;;;;;;8.30;2.27;;;;;;;;;;4968490;28;20729;-83
2022/11/10 17:31:43;;;;;;;8.10;2.30;;;;;;;;;;5017663;28;20231;-83
2022/11/10 17:34:27;;;;;;;6.40;2.60;;;;;;;;;;4992916;28;21164;-82
2022/11/10 17:37:12;;;;;;;8.17;2.63;;;;;;;;;;5007648;28;20227;-83
2022/11/10 17:39:56;;;;;;;6.27;2.00;;;;;;;;;;5006584;28;20256;-83
2022/11/10 17:42:43;;;;;;;4.77;2.23;;;;;;;;;;4981902;28;20230;-84
2022/11/10 17:45:29;;;;;;;9.07;2.77;;;;;;;;;;5001823;28;20275;-86
2022/11/10 17:48:13;;;;;;;9.93;2.63;;;;;;;;;;5001011;28;20637;-81
2022/11/10 17:50:58;;;;;;;7.53;2.83;;;;;;;;;;5016415;28;20760;-81
2022/11/10 17:53:44;;;;;;;5.73;2.27;;;;;;;;;;4992188;28;20283;-84
2022/11/10 17:56:29;;;;;;;9.67;2.50;;;;;;;;;;5003541;28;20247;-85
2022/11/10 17:59:13;;;;;;;7.33;3.10;;;;;;;;;;4996486;28;20562;-83
2022/11/10 18:01:59;;;;;;;6.20;2.97;;;;;;;;;;5024309;28;20224;-82
2022/11/10 18:04:44;;;;;;;6.53;2.10;;;;;;;;;;5024230;28;20275;-82
2022/11/10 18:07:28;;;;;;;5.50;2.03;;;;;;;;;;5014137;28;20232;-83
2022/11/10 18:10:17;;;;;;;9.53;2.63;;;;;;;;;;4992185;28;20232;-83
2022/11/10 18:13:04;;;;;;;5.30;2.40;;;;;;;;;;4992932;28;20257;-81
2022/11/10 18:15:53;;;;;;;8.60;2.37;;;;;;;;;;4997923;23;20295;-71
2022/11/10 18:18:37;;;;;;;5.87;2.30;;;;;;;;;;4982374;28;20253;-72
2022/11/10 18:21:22;;;;;;;7.90;2.47;;;;;;;;;;4995504;28;20639;-72
2022/11/10 18:24:06;;;;;;;5.27;2.33;;;;;;;;;;4997150;28;20255;-72
2022/11/10 18:26:50;;;;;;;9.20;2.87;;;;;;;;;;4994545;28;20231;-73
2022/11/10 18:29:37;;;;;;;7.13;2.60;;;;;;;;;;4994737;28;20240;-72
2022/11/10 18:32:22;;;;;;;6.10;2.50;;;;;;;;;;4993768;28;20830;-72
2022/11/10 18:35:07;;;;;;;10.40;4.17;;;;;;;;;;5006830;28;20749;-74
2022/11/10 18:37:51;;;;;;;7.60;2.50;;;;;;;;;;4992820;28;20784;-72
2022/11/10 18:40:40;;;;;;;6.90;3.60;;;;;;;;;;5009259;28;20224;-72
2022/11/10 18:43:24;;;;;;;7.07;2.63;;;;;;;;;;4992906;28;20232;-71
2022/11/10 18:46:08;;;;;;;9.23;3.43;;;;;;;;;;5007942;28;20274;-72
2022/11/10 18:48:52;;;;;;;6.73;3.00;;;;;;;;;;5006878;28;20642;-72
2022/11/10 18:51:37;;;;;;;10.57;3.40;;;;;;;;;;5007044;28;20255;-72
2022/11/10 18:54:21;;;;;;;6.47;2.70;;;;;;;;;;5007912;28;20438;-71
2022/11/10 18:57:05;;;;;;;9.07;2.47;;;;;;;;;;5007533;28;20702;-73
2022/11/10 18:59:49;;;;;;;8.20;2.13;;;;;;;;;;4994970;28;20294;-73
2022/11/10 19:02:35;;;;;;;3.83;2.00;;;;;;;;;;4979847;28;20304;-72
2022/11/10 19:05:20;;;;;;;7.30;2.00;;;;;;;;;;5007339;28;20733;-72
2022/11/10 19:08:05;;;;;;;6.57;2.27;;;;;;;;;;5008380;28;20227;-71
2022/11/10 19:10:52;;;;;;;8.50;2.58;;;;;;;;;;5009023;28;20243;-71
2022/11/10 19:13:36;;;;;;;9.10;2.23;;;;;;;;;;4994424;28;20236;-71
2022/11/10 19:16:21;;;;;;;7.40;2.13;;;;;;;;;;5008535;28;20328;-73
2022/11/10 19:19:05;;;;;;;6.70;2.67;;;;;;;;;;4996373;28;20224;-73
2022/11/10 19:21:50;;;;;;;4.77;2.20;;;;;;;;;;4998942;28;20236;-73
2022/11/10 19:24:36;;;;;;;5.53;2.27;;;;;;;;;;4993766;28;20232;-73
2022/11/10 19:27:24;;;;;;;6.93;2.70;;;;;;;;;;5006812;28;20283;-73
2022/11/10 19:30:09;;;;;;;5.73;2.80;;;;;;;;;;5006682;28;20251;-72
2022/11/10 19:32:54;;;;;;;5.87;2.53;;;;;;;;;;5006839;28;20243;-73
2022/11/10 19:35:43;;;;;;;6.60;2.43;;;;;;;;;;5007195;28;20239;-73
2022/11/10 19:38:30;;;;;;;5.70;2.37;;;;;;;;;;4993961;28;20290;-72
2022/11/10 19:41:16;;;;;;;4.77;2.10;;;;;;;;;;4994655;28;20348;-73
2022/11/10 19:44:03;;;;;;;6.77;2.57;;;;;;;;;;5022060;28;20227;-72
2022/11/10 19:46:50;;;;;;;6.33;2.10;;;;;;;;;;5006315;28;20306;-72
2022/11/10 19:49:37;;;;;;;6.27;2.43;;;;;;;;;;5020569;28;20274;-72
2022/11/10 19:52:21;;;;;;;6.13;2.40;;;;;;;;;;5005144;28;20359;-73
2022/11/10 19:55:05;;;;;;;7.33;2.10;;;;;;;;;;4992607;28;20290;-73
2022/11/10 19:57:52;;;;;;;5.53;2.13;;;;;;;;;;5005850;28;20608;-72
2022/11/10 20:00:36;;;;;;;7.17;2.20;;;;;;;;;;5008776;28;20716;-72
2022/11/10 20:03:25;;;;;;;5.27;1.80;;;;;;;;;;5006612;28;20291;-72
2022/11/10 20:06:15;;;;;;;4.33;1.93;;;;;;;;;;5006634;28;20286;-73
2022/11/10 20:09:00;;;;;;;6.83;1.77;;;;;;;;;;5007998;28;20299;-72
2022/11/10 20:11:46;;;;;;;5.00;2.10;;;;;;;;;;4991692;28;20236;-73
2022/11/10 20:14:30;;;;;;;6.27;1.90;;;;;;;;;;5018654;28;20348;-73
2022/11/10 20:17:16;;;;;;;3.80;1.93;;;;;;;;;;5006788;28;20263;-73
2022/11/10 20:20:04;;;;;;;4.57;2.00;;;;;;;;;;5004052;28;20228;-73
2022/11/10 20:22:50;;;;;;;7.47;1.97;;;;;;;;;;5006127;28;20235;-72
2022/11/10 20:25:37;;;;;;;5.60;2.00;;;;;;;;;;4994543;28;20230;-72
2022/11/10 20:28:23;;;;;;;5.37;1.80;;;;;;;;;;5006082;28;21049;-72
2022/11/10 20:31:15;;;;;;;6.40;1.87;;;;;;;;;;4991231;28;20223;-74
2022/11/10 20:33:59;;;;;;;3.80;1.83;;;;;;;;;;5005326;28;20749;-72
2022/11/10 20:36:47;;;;;;;4.40;2.13;;;;;;;;;;4993120;28;20279;-73
2022/11/10 20:39:32;;;;;;;4.37;2.10;;;;;;;;;;5019131;28;20271;-73
2022/11/10 20:42:16;;;;;;;5.20;2.20;;;;;;;;;;5020289;28;20275;-73
2022/11/10 20:45:00;;;;;;;5.60;2.00;;;;;;;;;;5018061;28;20283;-73
2022/11/10 20:47:47;;;;;;;5.60;2.00;;;;;;;;;;5006893;28;20290;-73
2022/11/10 20:50:34;;;;;;;4.47;1.80;;;;;;;;;;5006570;28;20224;-73
2022/11/10 20:53:21;;;;;;;4.13;1.70;;;;;;;;;;5007034;28;20243;-73
2022/11/10 20:56:05;;;;;;;8.27;1.80;;;;;;;;;;5006345;28;20243;-73
2022/11/10 20:58:51;;;;;;;6.10;2.10;;;;;;;;;;5019118;28;20227;-73
2022/11/10 21:01:36;;;;;;;4.53;1.47;;;;;;;;;;5006186;28;20251;-72
2022/11/10 21:04:20;;;;;;;3.83;1.73;;;;;;;;;;5005892;28;20255;-72
2022/11/10 21:07:05;;;;;;;8.20;5.00;;;;;;;;;;4992270;28;20227;-75
2022/11/10 21:09:51;;;;;;;5.97;3.50;;;;;;;;;;5008473;28;20318;-75
2022/11/10 21:12:50;;;;;;;7.20;2.33;;;;;;;;;;4997697;28;20275;-73
2022/11/10 21:15:38;;;;;;;7.27;2.07;;;;;;;;;;5006761;28;20263;-72
2022/11/10 21:18:34;;;;;;;3.93;1.80;;;;;;;;;;4991965;28;20240;-72
2022/11/10 21:21:26;;;;;;;7.90;2.30;;;;;;;;;;5007333;28;20710;-72
2022/11/10 21:24:13;;;;;;;4.17;1.87;;;;;;;;;;5020241;28;20227;-72
2022/11/10 21:26:57;;;;;;;3.83;1.80;;;;;;;;;;5009662;28;20230;-73
2022/11/10 21:29:41;;;;;;;5.10;1.80;;;;;;;;;;4996779;28;20674;-71
2022/11/10 21:32:27;;;;;;;4.67;1.83;;;;;;;;;;4995644;28;20227;-72